Time;durP1;ratioP1;P1;durP2;ratioP2;P2;SDS_P1;SDS_P2;PMS_P1;PMS_P2;Temp;Humidity;BMP_temperature;BMP_pressure;BME280_temperature;BME280_humidity;BME280_pressure;Samples;Min_cycle;Max_cycle;Signal;HPM_P1;HPM_P2
2023/07/09 00:02:24;;;;;;;10.00;4.68;;;;;;;26.12;49.09;101238.78;5072662;28;20055;-79
2023/07/09 00:05:16;;;;;;;9.18;3.28;;;;;;;26.22;49.79;101249.09;5057587;28;20094;-79
2023/07/09 00:08:01;;;;;;;4.07;2.88;;;;;;;26.33;49.86;101245.03;5071298;28;20405;-79
2023/07/09 00:10:46;;;;;;;7.70;3.30;;;;;;;26.36;49.77;101235.06;5032601;28;20521;-78
2023/07/09 00:13:30;;;;;;;6.28;3.30;;;;;;;26.36;50.21;101235.84;5032699;28;20060;-80
2023/07/09 00:16:18;;;;;;;;;;;;;;;26.43;49.74;101239.78;5032898;28;20049;-79
2023/07/09 00:19:04;;;;;;;9.00;3.25;;;;;;;26.42;49.80;101236.19;5032750;28;19913;-79
2023/07/09 00:21:52;;;;;;;8.07;3.55;;;;;;;26.44;49.51;101231.00;5032381;28;20044;-79
2023/07/09 00:24:37;;;;;;;8.90;4.03;;;;;;;26.39;49.69;101234.25;5032387;28;20052;-79
2023/07/09 00:27:27;;;;;;;11.40;3.53;;;;;;;26.33;49.75;101219.94;5046847;28;20064;-79
2023/07/09 00:30:23;;;;;;;9.35;3.63;;;;;;;26.30;50.27;101231.91;5036276;28;20048;-79
2023/07/09 00:33:14;;;;;;;26.02;4.45;;;;;;;26.26;50.04;101228.34;5031757;28;20060;-79
2023/07/09 00:35:59;;;;;;;9.30;3.45;;;;;;;26.21;50.16;101219.63;5032000;28;20064;-78
2023/07/09 00:38:47;;;;;;;9.18;3.88;;;;;;;26.18;50.46;101226.00;5031015;28;20056;-78
2023/07/09 00:41:35;;;;;;;8.65;3.30;;;;;;;26.19;50.57;101220.03;5033582;28;20049;-79
2023/07/09 00:44:19;;;;;;;9.20;4.13;;;;;;;26.15;50.35;101224.84;5035563;28;20056;-79
2023/07/09 00:47:26;;;;;;;9.43;4.57;;;;;;;25.62;50.71;101208.44;5041055;28;20044;-81
2023/07/09 00:50:21;;;;;;;8.48;4.63;;;;;;;25.12;52.13;101221.72;5050751;28;20048;-81
2023/07/09 00:53:45;;;;;;;8.70;4.50;;;;;;;24.57;53.62;101222.19;5031811;28;20113;-80
2023/07/09 00:56:38;;;;;;;14.25;3.80;;;;;;;24.13;55.59;101224.50;4956365;28;20078;-80
2023/07/09 00:59:28;;;;;;;9.25;4.95;;;;;;;23.81;56.51;101219.72;5035910;28;20433;-80
2023/07/09 01:02:14;;;;;;;9.23;4.88;;;;;;;23.93;56.16;101220.50;5035752;28;20340;-82
2023/07/09 01:05:01;;;;;;;6.22;4.00;;;;;;;24.27;54.92;101213.47;5021663;28;20048;-81
2023/07/09 01:07:48;;;;;;;8.80;4.20;;;;;;;24.34;54.71;101212.66;5034813;28;20072;-81
2023/07/09 01:10:32;;;;;;;7.55;4.38;;;;;;;23.85;56.42;101220.50;5009668;28;20521;-81
2023/07/09 01:13:19;;;;;;;8.68;4.45;;;;;;;24.00;55.57;101226.88;5022768;28;20433;-81
2023/07/09 01:16:04;;;;;;;6.18;3.90;;;;;;;24.01;55.70;101222.94;5035046;28;20048;-81
2023/07/09 01:18:53;;;;;;;6.10;4.05;;;;;;;24.04;55.33;101218.53;5022948;28;20052;-81
2023/07/09 01:21:38;;;;;;;10.02;4.32;;;;;;;23.84;55.49;101223.66;5021074;28;20526;-81
2023/07/09 01:24:54;;;;;;;7.15;4.32;;;;;;;23.82;55.95;101226.84;5011833;28;20064;-81
2023/07/09 01:27:46;;;;;;;8.65;3.95;;;;;;;23.99;54.95;101216.16;5021830;28;20044;-81
2023/07/09 01:30:37;;;;;;;6.93;4.03;;;;;;;23.95;55.51;101210.59;5034965;28;20117;-81
2023/07/09 01:33:23;;;;;;;8.77;4.38;;;;;;;24.01;54.83;101220.16;5020239;28;20065;-81
2023/07/09 01:36:09;;;;;;;5.40;4.10;;;;;;;23.90;54.55;101219.31;5020124;28;20052;-81
2023/07/09 01:38:55;;;;;;;8.68;3.75;;;;;;;23.92;55.08;101218.94;5035452;28;20117;-81
2023/07/09 01:41:40;;;;;;;8.27;3.92;;;;;;;24.03;54.11;101214.16;5035224;28;20052;-81
2023/07/09 01:44:29;;;;;;;5.55;3.35;;;;;;;23.97;54.25;101216.56;5034747;28;20060;-81
2023/07/09 01:47:14;;;;;;;6.80;4.13;;;;;;;23.78;55.25;101214.91;5035363;28;20052;-81
2023/07/09 01:49:59;;;;;;;7.70;4.47;;;;;;;23.64;55.24;101214.09;5023907;28;20056;-81
2023/07/09 01:52:46;;;;;;;7.88;3.95;;;;;;;23.50;56.38;101208.50;5021161;28;20060;-81
2023/07/09 01:55:31;;;;;;;7.28;4.07;;;;;;;23.56;55.71;101210.50;5044318;28;20047;-81
2023/07/09 01:58:17;;;;;;;10.18;4.78;;;;;;;23.48;56.07;101221.97;5074732;28;20063;-81
2023/07/09 02:01:02;;;;;;;7.55;3.75;;;;;;;23.46;56.68;101216.81;5061264;28;20111;-82
2023/07/09 02:03:47;;;;;;;8.40;3.53;;;;;;;22.91;58.26;101218.84;5051743;28;20095;-82
2023/07/09 02:06:31;;;;;;;12.27;4.53;;;;;;;23.13;57.01;101220.59;5074423;28;20524;-81
2023/07/09 02:09:16;;;;;;;10.38;4.82;;;;;;;23.04;57.55;101222.91;5074909;28;20066;-81
2023/07/09 02:12:02;;;;;;;;;;;;;;;23.14;56.76;101224.16;5063765;28;20551;-82
2023/07/09 02:14:48;;;;;;;7.07;4.30;;;;;;;23.35;56.58;101219.50;5063153;28;19913;-81
2023/07/09 02:17:33;;;;;;;7.72;3.97;;;;;;;23.46;56.52;101219.59;5059178;28;20055;-81
2023/07/09 02:20:19;;;;;;;8.02;3.47;;;;;;;23.58;56.40;101226.75;5075057;28;20527;-81
2023/07/09 02:23:06;;;;;;;8.18;4.10;;;;;;;23.61;55.77;101221.22;5074071;28;20048;-81
2023/07/09 02:25:51;;;;;;;11.43;4.75;;;;;;;23.67;55.46;101224.44;5062354;28;20043;-81
2023/07/09 02:28:36;;;;;;;;;;;;;;;23.64;55.29;101217.66;5059894;28;20052;-81
2023/07/09 02:31:20;;;;;;;5.97;3.85;;;;;;;23.58;55.77;101218.44;5076081;28;19916;-80
2023/07/09 02:34:05;;;;;;;10.75;3.88;;;;;;;23.51;55.92;101221.19;5078207;28;20059;-80
2023/07/09 02:36:50;;;;;;;11.50;3.72;;;;;;;23.80;55.95;101214.53;5063524;28;20127;-80
2023/07/09 02:39:34;;;;;;;;;;;;;;;24.08;55.38;101222.13;5054296;28;20067;-80
2023/07/09 02:42:21;;;;;;;10.38;3.55;;;;;;;24.23;54.85;101215.41;5078352;28;19912;-80
2023/07/09 02:45:08;;;;;;;7.80;3.35;;;;;;;24.32;54.32;101218.63;5049807;28;20044;-80
2023/07/09 02:47:53;;;;;;;6.68;3.67;;;;;;;24.46;53.99;101221.41;5052904;28;20051;-80
2023/07/09 02:50:38;;;;;;;8.13;3.88;;;;;;;24.48;53.64;101227.34;5065225;28;20052;-80
2023/07/09 02:53:23;;;;;;;7.47;3.70;;;;;;;24.49;53.46;101220.59;5049105;28;20056;-80
2023/07/09 02:56:08;;;;;;;9.38;3.10;;;;;;;24.56;53.34;101228.16;5053549;28;20079;-80
2023/07/09 02:58:52;;;;;;;;;;;;;;;24.53;53.36;101228.97;5066144;28;20059;-80
2023/07/09 03:01:37;;;;;;;7.20;3.53;;;;;;;24.52;53.17;101224.59;5063919;28;19913;-80
2023/07/09 03:04:22;;;;;;;9.07;4.40;;;;;;;24.50;53.22;101227.75;5067961;28;20504;-80
2023/07/09 03:07:07;;;;;;;6.63;3.60;;;;;;;24.33;52.95;101227.75;5065920;28;20516;-80
2023/07/09 03:09:51;;;;;;;;;;;;;;;24.23;53.99;101226.53;5050640;28;20051;-80
2023/07/09 03:12:36;;;;;;;5.97;3.90;;;;;;;24.20;53.90;101225.34;5064569;28;19913;-80
2023/07/09 03:15:20;;;;;;;10.93;3.97;;;;;;;24.21;54.05;101226.16;5078061;28;20301;-80
2023/07/09 03:18:05;;;;;;;10.02;3.53;;;;;;;24.06;53.33;101221.75;5077394;28;20059;-80
2023/07/09 03:20:50;;;;;;;5.68;3.97;;;;;;;24.07;53.78;101226.13;5068586;28;20047;-80
2023/07/09 03:23:35;;;;;;;11.98;3.17;;;;;;;24.11;54.38;101221.34;5094512;22;20067;-79
2023/07/09 03:26:21;;;;;;;4.90;2.97;;;;;;;24.28;52.94;101232.50;5068251;28;20055;-78
2023/07/09 03:29:06;;;;;;;7.32;4.50;;;;;;;24.20;53.23;101232.91;5066399;28;20424;-78
2023/07/09 03:31:50;;;;;;;10.32;3.70;;;;;;;24.02;53.63;101227.31;5078243;28;20073;-79
2023/07/09 03:34:35;;;;;;;8.60;3.63;;;;;;;24.10;53.79;101223.34;5081277;28;20410;-79
2023/07/09 03:37:20;;;;;;;;;;;;;;;24.08;53.46;101225.69;5081962;28;20052;-77
2023/07/09 03:40:05;;;;;;;10.83;5.90;;;;;;;24.03;53.45;101225.28;5065984;28;19912;-77
2023/07/09 03:42:50;;;;;;;10.20;6.03;;;;;;;23.61;54.92;101221.22;5067805;28;20044;-77
2023/07/09 03:45:36;;;;;;;12.38;6.18;;;;;;;23.68;54.76;101232.34;5063501;28;20059;-79
2023/07/09 03:48:21;;;;;;;7.57;4.93;;;;;;;23.53;55.78;101227.94;5079271;28;20067;-76
2023/07/09 03:51:06;;;;;;;10.23;4.97;;;;;;;23.67;54.87;101225.19;5079734;28;20052;-79
2023/07/09 03:53:51;;;;;;;10.60;4.75;;;;;;;23.52;55.91;101234.66;5065624;28;20127;-77
2023/07/09 03:56:37;;;;;;;;;;;;;;;23.47;56.14;101237.06;5076597;28;20067;-77
2023/07/09 03:59:21;;;;;;;9.73;4.82;;;;;;;23.57;55.73;101222.41;5067482;28;19912;-77
2023/07/09 04:02:07;;;;;;;10.63;4.95;;;;;;;23.55;55.79;101225.56;5076073;28;20413;-77
2023/07/09 04:04:51;;;;;;;8.90;4.32;;;;;;;23.70;55.59;101229.19;5061295;28;20051;-77
2023/07/09 04:07:37;;;;;;;7.00;4.47;;;;;;;23.61;55.84;101226.00;5060668;28;20040;-77
2023/07/09 04:10:22;;;;;;;14.52;4.82;;;;;;;23.73;55.86;101225.63;5061544;28;20524;-77
2023/07/09 04:13:06;;;;;;;8.75;3.83;;;;;;;23.51;57.17;101222.00;5076139;28;20413;-79
2023/07/09 04:15:51;;;;;;;11.95;4.85;;;;;;;23.65;56.79;101221.25;5076408;28;20052;-76
2023/07/09 04:18:36;;;;;;;8.07;4.32;;;;;;;23.57;57.00;101228.72;5075911;28;20063;-77
2023/07/09 04:21:20;;;;;;;9.20;4.10;;;;;;;23.27;58.58;101231.75;5060483;28;20055;-77
2023/07/09 04:24:05;;;;;;;6.20;4.35;;;;;;;23.33;58.38;101229.41;5064119;28;20721;-79
2023/07/09 04:26:56;;;;;;;6.15;4.22;;;;;;;23.04;58.61;101220.16;5048897;28;20048;-78
2023/07/09 04:29:41;;;;;;;14.45;4.80;;;;;;;22.51;60.65;101222.50;5075939;28;20047;-78
2023/07/09 04:32:26;;;;;;;11.60;4.00;;;;;;;22.58;60.62;101219.78;5078274;28;20067;-77
2023/07/09 04:35:12;;;;;;;9.65;4.72;;;;;;;22.82;59.34;101210.88;5065325;28;20047;-78
2023/07/09 04:37:57;;;;;;;13.15;5.78;;;;;;;23.16;58.87;101222.56;5054476;28;20068;-77
2023/07/09 04:40:42;;;;;;;7.88;4.70;;;;;;;23.67;56.86;101219.66;5062208;28;20047;-77
2023/07/09 04:43:26;;;;;;;;;;;;;;;23.72;56.80;101227.59;5077763;28;20047;-77
2023/07/09 04:46:11;;;;;;;9.83;4.53;;;;;;;23.67;56.05;101227.97;5078277;28;19912;-77
2023/07/09 04:48:55;;;;;;;;;;;;;;;23.65;56.34;101227.59;5067321;28;20059;-79
2023/07/09 04:51:40;;;;;;;6.85;3.70;;;;;;;23.54;56.76;101229.53;5069842;28;19912;-79
2023/07/09 04:54:24;;;;;;;;;;;;;;;23.47;56.69;101235.03;5075511;28;20051;-76
2023/07/09 04:57:09;;;;;;;6.78;3.88;;;;;;;23.68;58.47;101234.31;5077286;28;19916;-77
2023/07/09 04:59:54;;;;;;;15.52;4.20;;;;;;;24.09;56.05;101232.84;5076812;28;20059;-77
2023/07/09 05:02:39;;;;;;;7.18;4.68;;;;;;;24.22;55.51;101238.88;5055408;28;20521;-78
2023/07/09 05:05:24;;;;;;;13.27;4.63;;;;;;;24.34;55.39;101243.22;5051722;28;20114;-78
2023/07/09 05:08:09;;;;;;;5.65;4.28;;;;;;;24.36;55.43;101238.88;5060826;28;20154;-78
2023/07/09 05:10:57;;;;;;;11.40;4.80;;;;;;;23.98;56.25;101236.78;5058546;28;20052;-77
2023/07/09 05:13:42;;;;;;;7.72;3.92;;;;;;;23.36;58.09;101248.06;5056797;28;20059;-79
2023/07/09 05:16:27;;;;;;;14.32;5.28;;;;;;;23.59;57.99;101239.47;5072295;28;20417;-79
2023/07/09 05:19:12;;;;;;;;;;;;;;;23.54;59.04;101243.41;5058854;28;20409;-77
2023/07/09 05:21:56;;;;;;;9.45;4.18;;;;;;;23.69;58.71;101228.38;5057206;28;20458;-76
2023/07/09 05:24:41;;;;;;;10.55;3.95;;;;;;;24.13;57.61;101232.84;5060407;28;20047;-77
2023/07/09 05:27:26;;;;;;;13.45;5.25;;;;;;;23.97;58.26;101232.44;5070729;28;20048;-77
2023/07/09 05:30:11;;;;;;;8.77;4.22;;;;;;;24.05;58.28;101236.81;5076523;28;20047;-78
2023/07/09 05:32:57;;;;;;;6.15;4.65;;;;;;;24.16;58.11;101238.44;5056870;28;20062;-76
2023/07/09 05:35:42;;;;;;;11.23;4.57;;;;;;;24.13;57.99;101246.75;5072501;28;20040;-78
2023/07/09 05:38:27;;;;;;;8.73;4.40;;;;;;;24.15;57.58;101236.84;5071700;28;20063;-76
2023/07/09 05:41:12;;;;;;;11.15;4.50;;;;;;;24.34;57.44;101234.88;5060192;28;20532;-78
2023/07/09 05:43:57;;;;;;;10.85;4.07;;;;;;;24.64;56.48;101244.44;5058301;28;20056;-78
2023/07/09 05:46:42;;;;;;;9.73;4.65;;;;;;;24.79;56.26;101242.41;5062389;28;20051;-76
2023/07/09 05:49:26;;;;;;;8.55;4.47;;;;;;;24.78;56.36;101248.41;5071699;28;20047;-77
2023/07/09 05:52:11;;;;;;;;;;;;;;;24.81;55.86;101247.59;5056873;28;20052;-77
2023/07/09 05:54:55;;;;;;;6.65;3.70;;;;;;;24.95;55.76;101253.97;5071635;28;19917;-78
2023/07/09 05:57:40;;;;;;;8.70;4.47;;;;;;;25.10;54.80;101243.59;5071257;28;20048;-77
2023/07/09 06:00:25;;;;;;;8.02;4.57;;;;;;;25.18;54.10;101250.75;5073178;28;20060;-79
2023/07/09 06:03:09;;;;;;;9.48;4.50;;;;;;;25.29;53.20;101259.88;5072431;28;20688;-78
2023/07/09 06:05:57;;;;;;;8.27;4.32;;;;;;;25.37;53.78;101253.06;5073544;28;20228;-78
2023/07/09 06:09:00;;;;;;;5.85;4.30;;;;;;;25.43;53.70;101259.81;5048556;28;20051;-82
2023/07/09 06:11:45;;;;;;;10.07;4.78;;;;;;;25.28;52.73;101261.06;5065529;28;20051;-78
2023/07/09 06:14:31;;;;;;;9.55;4.22;;;;;;;25.34;52.87;101253.88;5063951;28;20409;-77
2023/07/09 06:17:16;;;;;;;7.60;4.25;;;;;;;25.42;52.44;101255.44;5059702;28;20051;-79
2023/07/09 06:20:01;;;;;;;7.13;3.72;;;;;;;25.72;52.54;101259.72;5059886;28;20047;-78
2023/07/09 06:22:45;;;;;;;13.48;5.03;;;;;;;25.54;52.54;101254.22;5074837;28;20051;-77
2023/07/09 06:25:30;;;;;;;;;;;;;;;25.58;52.60;101257.00;5063568;28;20102;-77
2023/07/09 06:28:16;;;;;;;6.47;4.13;;;;;;;25.80;51.79;101259.28;5061590;28;19912;-77
2023/07/09 06:31:01;;;;;;;7.45;4.53;;;;;;;25.95;51.49;101260.00;5060258;28;20048;-76
2023/07/09 06:33:47;;;;;;;11.05;3.90;;;;;;;25.90;52.28;101263.22;5046657;28;20413;-78
2023/07/09 06:36:32;;;;;;;70.30;16.63;;;;;;;25.86;52.44;101259.63;5061453;28;20044;-77
2023/07/09 06:39:19;;;;;;;;;;;;;;;25.92;51.73;101266.38;5050469;28;20044;-79
2023/07/09 06:42:04;;;;;;;69.95;18.38;;;;;;;25.83;52.06;101257.69;5047625;28;19913;-77
2023/07/09 06:45:15;;;;;;;53.92;11.70;;;;;;;25.88;52.30;101271.19;5079339;28;20413;-78
2023/07/09 06:48:01;;;;;;;41.85;10.63;;;;;;;25.85;52.16;101267.19;5059065;28;20037;-80
2023/07/09 06:50:46;;;;;;;40.42;9.20;;;;;;;25.93;52.61;101273.53;5060869;28;20048;-78
2023/07/09 06:53:31;;;;;;;45.22;11.13;;;;;;;25.90;52.12;101264.03;5074252;28;20051;-79
2023/07/09 06:56:16;;;;;;;23.45;7.15;;;;;;;25.85;52.71;101269.22;5063055;28;20048;-77
2023/07/09 06:59:00;;;;;;;13.20;6.03;;;;;;;25.86;53.55;101270.78;5046703;28;20047;-79
2023/07/09 07:01:45;;;;;;;;;;;;;;;25.87;53.60;101272.38;5064994;28;20075;-77
2023/07/09 07:04:29;;;;;;;14.95;5.65;;;;;;;25.91;53.19;101279.53;5048983;28;20289;-76
2023/07/09 07:07:14;;;;;;;;;;;;;;;25.93;53.22;101279.13;5074768;28;20043;-77
2023/07/09 07:09:58;;;;;;;14.27;5.33;;;;;;;25.98;52.89;101273.91;5065060;28;19912;-80
2023/07/09 07:12:44;;;;;;;;;;;;;;;26.08;52.44;101269.47;5059275;28;20274;-79
2023/07/09 07:15:28;;;;;;;12.93;4.22;;;;;;;26.03;53.16;101278.28;5051499;28;19913;-78
2023/07/09 07:18:13;;;;;;;9.68;4.38;;;;;;;26.13;52.87;101277.41;5044248;28;20044;-79
2023/07/09 07:20:57;;;;;;;;;;;;;;;26.32;51.98;101279.69;5057233;28;20052;-77
2023/07/09 07:23:41;;;;;;;10.00;4.40;;;;;;;26.27;51.83;101270.97;5035523;28;20284;-77
2023/07/09 07:26:26;;;;;;;6.78;3.83;;;;;;;26.38;52.21;101272.50;5039195;28;20048;-78
2023/07/09 07:29:12;;;;;;;8.27;4.72;;;;;;;26.25;51.84;101271.41;5055924;28;20047;-76
2023/07/09 07:31:57;;;;;;;11.10;4.10;;;;;;;26.21;51.84;101273.38;5037449;28;20043;-79
2023/07/09 07:34:41;;;;;;;7.22;4.18;;;;;;;26.27;52.03;101277.34;5058756;28;20067;-79
2023/07/09 07:37:25;;;;;;;;;;;;;;;26.68;51.06;101285.00;5063077;28;20047;-78
2023/07/09 07:40:10;;;;;;;13.20;4.85;;;;;;;26.79;50.66;101280.13;5047371;28;19912;-79
2023/07/09 07:42:55;;;;;;;24.02;4.28;;;;;;;26.81;49.93;101277.72;5059660;28;20051;-77
2023/07/09 07:45:44;;;;;;;19.65;5.13;;;;;;;26.57;50.75;101273.13;5063384;28;20060;-79
2023/07/09 07:48:28;;;;;;;20.08;4.63;;;;;;;26.59;50.69;101271.53;5073624;28;20048;-81
2023/07/09 07:51:13;;;;;;;14.15;4.15;;;;;;;26.53;50.77;101275.97;5070167;28;20094;-78
2023/07/09 07:53:58;;;;;;;15.93;4.30;;;;;;;26.47;50.79;101266.44;5048990;28;20047;-77
2023/07/09 07:56:43;;;;;;;13.57;3.92;;;;;;;26.74;49.99;101264.63;5057471;28;20047;-77
2023/07/09 07:59:28;;;;;;;20.33;5.40;;;;;;;26.63;50.14;101260.34;5057897;28;20047;-77
2023/07/09 08:02:14;;;;;;;13.65;4.80;;;;;;;26.56;50.95;101266.00;5070842;28;20063;-80
2023/07/09 08:04:59;;;;;;;17.33;5.40;;;;;;;26.60;50.63;101261.97;5062212;28;20055;-77
2023/07/09 08:07:43;;;;;;;;;;;;;;;26.59;50.47;101265.16;5054490;28;20409;-78
2023/07/09 08:10:28;;;;;;;15.30;4.38;;;;;;;26.60;50.29;101259.19;5038259;28;19927;-78
2023/07/09 08:13:13;;;;;;;16.52;4.82;;;;;;;26.77;50.12;101260.19;5054633;28;20063;-77
2023/07/09 08:15:58;;;;;;;15.25;4.78;;;;;;;26.60;50.76;101258.38;5064770;28;20511;-78
2023/07/09 08:18:43;;;;;;;9.77;4.45;;;;;;;26.88;49.54;101260.13;5047553;28;20048;-78
2023/07/09 08:21:27;;;;;;;14.13;5.00;;;;;;;26.75;50.10;101263.44;5038386;28;20520;-79
2023/07/09 08:24:14;;;;;;;10.15;4.13;;;;;;;26.83;49.62;101256.56;5046564;28;20044;-77
2023/07/09 08:27:00;;;;;;;9.88;4.10;;;;;;;26.75;50.14;101265.41;5034246;28;20035;-77
2023/07/09 08:29:44;;;;;;;14.60;4.18;;;;;;;26.74;50.16;101270.22;5050592;28;20052;-77
2023/07/09 08:32:29;;;;;;;11.82;4.57;;;;;;;26.89;49.91;101268.09;5058941;28;20405;-78
2023/07/09 08:35:15;;;;;;;9.77;4.32;;;;;;;27.11;48.99;101275.06;5056165;28;20512;-79
2023/07/09 08:38:00;;;;;;;7.85;3.85;;;;;;;27.01;49.35;101266.81;5046107;28;20043;-79
2023/07/09 08:41:08;;;;;;;10.82;4.35;;;;;;;27.04;49.04;101275.13;5056746;28;20052;-77
2023/07/09 08:44:11;;;;;;;7.63;3.85;;;;;;;27.18;48.83;101263.81;5057296;28;20047;-79
2023/07/09 08:47:17;;;;;;;7.18;4.13;;;;;;;27.61;47.58;101268.94;5059598;28;20062;-76
2023/07/09 08:50:10;;;;;;;7.85;3.53;;;;;;;27.50;48.24;101271.06;5043132;28;20413;-79
2023/07/09 08:52:58;;;;;;;6.22;3.80;;;;;;;27.48;48.10;101274.25;5059464;28;20282;-78
2023/07/09 08:55:43;;;;;;;7.18;4.00;;;;;;;27.64;47.68;101268.09;5057052;28;20051;-77
2023/07/09 08:58:30;;;;;;;7.88;3.42;;;;;;;27.45;47.96;101260.31;5061838;28;20408;-77
2023/07/09 09:01:36;;;;;;;6.68;3.92;;;;;;;27.43;47.67;101262.75;5046318;28;20597;-79
2023/07/09 09:04:34;;;;;;;5.93;3.45;;;;;;;27.60;47.96;101258.97;5057643;28;20048;-77
2023/07/09 09:07:27;;;;;;;6.85;3.45;;;;;;;27.70;46.89;101260.84;5046423;28;20524;-77
2023/07/09 09:10:23;;;;;;;6.57;3.05;;;;;;;27.53;47.58;101268.22;5044366;28;20067;-77
2023/07/09 09:13:12;;;;;;;8.75;4.35;;;;;;;27.64;47.61;101268.88;5044291;28;20039;-78
2023/07/09 09:16:02;;;;;;;9.52;4.00;;;;;;;27.42;47.70;101273.13;5060077;28;20416;-79
2023/07/09 09:18:49;;;;;;;7.78;4.18;;;;;;;27.23;49.60;101266.16;5043627;28;20044;-78
2023/07/09 09:21:36;;;;;;;9.60;4.18;;;;;;;27.22;48.85;101269.38;5061498;28;20255;-78
2023/07/09 09:24:31;;;;;;;23.33;4.60;;;;;;;27.57;47.67;101268.19;5099792;22;20055;-76
2023/07/09 09:27:16;;;;;;;;;;;;;;;27.76;47.23;101266.75;5091632;28;20047;-77
2023/07/09 09:30:00;;;;;;;8.30;3.63;;;;;;;27.54;47.72;101263.44;5091869;28;19916;-76
2023/07/09 09:32:54;;;;;;;9.50;3.83;;;;;;;27.76;47.66;101275.94;5091656;28;20284;-76
2023/07/09 09:35:44;;;;;;;5.22;3.47;;;;;;;27.80;47.26;101271.06;5091703;28;20039;-76
2023/07/09 09:38:29;;;;;;;7.72;4.60;;;;;;;27.75;47.47;101268.75;5091330;28;20409;-76
2023/07/09 09:41:16;;;;;;;7.18;3.83;;;;;;;27.75;47.47;101271.53;5094898;28;20080;-76
2023/07/09 09:44:00;;;;;;;5.07;3.08;;;;;;;28.44;45.63;101264.59;5095757;28;20436;-76
2023/07/09 09:46:49;;;;;;;5.72;3.58;;;;;;;28.31;45.65;101269.19;5095506;28;20047;-76
2023/07/09 09:49:41;;;;;;;4.82;3.72;;;;;;;28.39;45.60;101270.66;5095608;28;20051;-76
2023/07/09 09:52:32;;;;;;;7.55;4.00;;;;;;;28.24;45.87;101272.88;5098635;28;20047;-76
2023/07/09 09:55:24;;;;;;;6.38;4.05;;;;;;;28.09;45.97;101271.47;5096553;28;20055;-77
2023/07/09 09:58:16;;;;;;;6.95;3.65;;;;;;;28.34;45.63;101271.91;5099596;28;20047;-76
2023/07/09 10:01:01;;;;;;;6.65;3.60;;;;;;;27.81;47.14;101277.47;5095494;28;20074;-77
2023/07/09 10:03:55;;;;;;;6.75;4.13;;;;;;;27.99;46.45;101273.22;5095022;28;20050;-77
2023/07/09 10:06:44;;;;;;;6.57;3.53;;;;;;;28.07;46.16;101271.91;5093963;28;20043;-76
2023/07/09 10:09:46;;;;;;;7.45;3.55;;;;;;;27.53;47.78;101270.25;5095625;28;20102;-76
2023/07/09 10:12:45;;;;;;;9.20;3.90;;;;;;;27.30;48.29;101270.88;5095320;28;20051;-76
2023/07/09 10:15:50;;;;;;;8.10;3.75;;;;;;;27.34;48.49;101271.63;5095243;28;20067;-77
2023/07/09 10:18:58;;;;;;;12.85;4.28;;;;;;;27.56;47.84;101275.78;5095141;28;20047;-76
2023/07/09 10:21:51;;;;;;;6.65;3.85;;;;;;;27.58;47.68;101270.56;5100006;28;20046;-77
2023/07/09 10:24:59;;;;;;;5.80;3.70;;;;;;;27.25;48.24;101276.91;5094999;28;20523;-77
2023/07/09 10:28:03;;;;;;;8.15;4.18;;;;;;;27.66;47.62;101271.28;5094624;28;20039;-77
2023/07/09 10:30:52;;;;;;;7.78;3.45;;;;;;;27.59;47.68;101276.94;5095884;28;20047;-77
2023/07/09 10:33:45;;;;;;;8.82;4.07;;;;;;;27.45;47.82;101279.88;5099071;28;20534;-76
2023/07/09 10:36:58;;;;;;;5.90;3.42;;;;;;;27.63;47.23;101274.91;5095096;28;20053;-76
2023/07/09 10:39:47;;;;;;;8.75;3.65;;;;;;;27.36;48.09;101280.38;5076276;28;20051;-77
2023/07/09 10:42:39;;;;;;;6.40;3.60;;;;;;;27.83;46.79;101275.06;5086486;28;20519;-76
2023/07/09 10:45:44;;;;;;;8.10;3.42;;;;;;;28.34;46.71;101283.09;5079853;28;20035;-77
2023/07/09 10:48:41;;;;;;;11.52;3.35;;;;;;;28.67;44.08;101277.78;5082383;28;20055;-77
2023/07/09 10:51:40;;;;;;;8.60;4.82;;;;;;;29.56;41.74;101271.38;5071692;28;20039;-77
2023/07/09 10:54:46;;;;;;;5.57;3.38;;;;;;;28.99;43.79;101274.47;5083964;28;20063;-77
2023/07/09 10:58:02;;;;;;;7.25;3.88;;;;;;;29.56;41.68;101280.56;5082173;28;20043;-77
2023/07/09 11:00:47;;;;;;;5.30;3.67;;;;;;;29.09;43.37;101282.69;5083323;28;20412;-76
2023/07/09 11:04:05;;;;;;;5.43;3.50;;;;;;;28.69;44.56;101281.75;5083538;28;20421;-77
2023/07/09 11:06:53;;;;;;;16.15;3.33;;;;;;;28.40;45.35;101270.22;5069718;28;20055;-77
2023/07/09 11:09:47;;;;;;;6.05;3.85;;;;;;;28.47;44.87;101278.50;5073893;28;20577;-77
2023/07/09 11:12:43;;;;;;;6.13;3.90;;;;;;;28.65;44.65;101275.41;5086979;28;20063;-77
2023/07/09 11:15:35;;;;;;;7.03;3.67;;;;;;;28.34;45.66;101276.75;5073798;28;20043;-77
2023/07/09 11:18:30;;;;;;;9.45;3.55;;;;;;;27.96;46.27;101274.06;5073486;28;20516;-77
2023/07/09 11:21:17;;;;;;;6.68;3.25;;;;;;;28.02;46.63;101269.59;5089492;28;20043;-77
2023/07/09 11:24:02;;;;;;;7.60;3.80;;;;;;;27.74;47.32;101271.97;5075283;28;20234;-77
2023/07/09 11:26:49;;;;;;;6.03;3.53;;;;;;;27.67;47.48;101261.69;5087624;28;20055;-77
2023/07/09 11:29:45;;;;;;;6.93;2.75;;;;;;;27.86;47.32;101263.81;5085396;28;20047;-76
2023/07/09 11:32:30;;;;;;;9.40;3.60;;;;;;;28.11;46.39;101268.25;5080639;28;20047;-77
2023/07/09 11:35:43;;;;;;;5.65;3.75;;;;;;;29.42;43.40;101263.25;5073409;28;20051;-76
2023/07/09 11:38:40;;;;;;;5.63;3.47;;;;;;;29.62;42.42;101258.41;5072981;28;20051;-77
2023/07/09 11:41:34;;;;;;;8.82;4.30;;;;;;;29.97;42.07;101260.47;5072458;28;20060;-77
2023/07/09 11:44:30;;;;;;;18.50;3.80;;;;;;;29.46;43.05;101252.78;5073307;28;20048;-77
2023/07/09 11:47:27;;;;;;;13.02;3.90;;;;;;;29.37;43.94;101252.53;5073028;28;20059;-77
2023/07/09 11:50:29;;;;;;;7.43;3.65;;;;;;;29.05;43.98;101258.75;5073161;28;20043;-76
2023/07/09 11:53:36;;;;;;;6.97;3.63;;;;;;;29.89;42.31;101247.84;5073084;28;20047;-77
2023/07/09 11:56:25;;;;;;;7.63;4.20;;;;;;;30.62;41.43;101245.75;5075100;28;20067;-77
2023/07/09 11:59:11;;;;;;;8.75;3.88;;;;;;;31.03;41.00;101248.69;5059185;28;20051;-77
2023/07/09 12:02:00;;;;;;;9.70;4.03;;;;;;;30.52;40.92;101242.78;5063066;28;20047;-77
2023/07/09 12:04:50;;;;;;;10.57;4.13;;;;;;;30.67;41.13;101236.78;5073402;28;20516;-77
2023/07/09 12:07:34;;;;;;;9.60;3.75;;;;;;;30.79;40.96;101238.84;5075345;28;20048;-77
2023/07/09 12:10:23;;;;;;;6.70;3.28;;;;;;;30.58;40.77;101237.38;5078862;28;20516;-78
2023/07/09 12:13:11;;;;;;;6.15;3.33;;;;;;;30.07;42.30;101231.38;5074780;28;20517;-79
2023/07/09 12:15:56;;;;;;;5.75;3.70;;;;;;;29.31;43.56;101227.81;5076499;28;20055;-78
2023/07/09 12:18:41;;;;;;;6.93;4.20;;;;;;;29.04;44.80;101229.97;5076426;28;20051;-78
2023/07/09 12:21:26;;;;;;;13.35;4.78;;;;;;;29.38;45.77;101226.09;5076565;28;20050;-78
2023/07/09 12:24:35;;;;;;;11.93;5.00;;;;;;;29.53;46.42;101219.78;5077030;28;20055;-77
2023/07/09 12:27:20;;;;;;;10.10;4.53;;;;;;;29.78;44.40;101224.81;5075717;28;20048;-78
2023/07/09 12:30:11;;;;;;;14.55;4.72;;;;;;;29.62;46.09;101222.78;5075688;28;20055;-76
2023/07/09 12:32:57;;;;;;;8.43;4.63;;;;;;;29.66;46.10;101219.91;5074704;28;20047;-78
2023/07/09 12:35:41;;;;;;;11.00;4.47;;;;;;;30.45;42.62;101214.84;5063452;28;20417;-78
2023/07/09 12:38:29;;;;;;;9.30;4.75;;;;;;;31.10;41.64;101209.13;5072752;28;20052;-78
2023/07/09 12:41:41;;;;;;;19.92;7.43;;;;;;;31.54;40.41;101217.91;5077461;28;20047;-77
2023/07/09 12:44:32;;;;;;;10.77;5.03;;;;;;;31.82;39.00;101208.63;5071853;28;20047;-77
2023/07/09 12:47:19;;;;;;;13.10;4.20;;;;;;;31.73;39.41;101205.69;5072512;28;20043;-78
2023/07/09 12:50:26;;;;;;;9.60;4.32;;;;;;;32.37;38.05;101204.44;5074929;28;20405;-78
2023/07/09 12:53:16;;;;;;;39.65;12.30;;;;;;;32.08;39.24;101201.75;5072386;28;20059;-78
2023/07/09 12:56:01;;;;;;;7.15;4.55;;;;;;;31.98;38.86;101205.69;5072582;28;20037;-78
2023/07/09 12:58:46;;;;;;;8.20;4.47;;;;;;;31.96;38.97;101210.97;5074656;28;20056;-77
2023/07/09 13:01:34;;;;;;;5.70;3.60;;;;;;;32.18;38.29;101211.91;5072611;28;20047;-77
2023/07/09 13:04:19;;;;;;;9.25;3.95;;;;;;;32.10;38.71;101207.69;5072534;28;20048;-77
2023/07/09 13:07:24;;;;;;;12.43;4.30;;;;;;;32.02;38.77;101200.75;5072604;28;20043;-77